createdAt,value
2024-03-08T00:00:27.687Z,24.10
2024-03-08T00:01:26.444Z,23.80
2024-03-08T00:02:31.127Z,26.10
2024-03-08T00:03:26.500Z,26.60
2024-03-08T00:04:26.472Z,24.10
2024-03-08T00:05:26.461Z,22.00
2024-03-08T00:06:27.627Z,22.40
2024-03-08T00:07:26.367Z,21.80
2024-03-08T00:08:27.596Z,27.10
2024-03-08T00:09:26.331Z,24.20
2024-03-08T00:10:28.470Z,25.80
2024-03-08T00:11:26.399Z,24.50
2024-03-08T00:12:26.484Z,26.10
2024-03-08T00:13:26.336Z,24.50
2024-03-08T00:14:27.132Z,27.60
2024-03-08T00:15:26.264Z,22.10
2024-03-08T00:16:26.507Z,25.10
2024-03-08T00:17:26.306Z,26.60
2024-03-08T00:18:26.614Z,27.40
2024-03-08T00:19:26.266Z,27.80
2024-03-08T00:20:26.433Z,24.10
2024-03-08T00:21:26.224Z,26.50
2024-03-08T00:22:26.437Z,28.70
2024-03-08T00:23:26.182Z,29.40
2024-03-08T00:24:26.374Z,27.30
2024-03-08T00:25:26.144Z,23.90
2024-03-08T00:26:26.419Z,25.40
2024-03-08T00:27:26.164Z,24.10
2024-03-08T00:28:26.277Z,27.10
2024-03-08T00:29:26.141Z,23.70
2024-03-08T00:30:26.164Z,25.10
2024-03-08T00:31:26.074Z,26.80
2024-03-08T00:32:26.299Z,24.80
2024-03-08T00:33:26.201Z,23.50
2024-03-08T00:34:26.143Z,21.70
2024-03-08T00:35:26.159Z,23.70
2024-03-08T00:36:26.176Z,24.20
2024-03-08T00:37:25.993Z,23.10
2024-03-08T00:38:26.147Z,21.50
2024-03-08T00:39:26.001Z,22.80
2024-03-08T00:40:27.018Z,27.30
2024-03-08T00:41:25.982Z,25.20
2024-03-08T00:42:26.209Z,26.50
2024-03-08T00:43:25.940Z,24.30
2024-03-08T00:44:27.048Z,24.80
2024-03-08T00:45:25.912Z,24.90
2024-03-08T00:46:25.932Z,24.30
2024-03-08T00:47:25.965Z,25.30
2024-03-08T00:48:27.116Z,21.10
2024-03-08T00:49:25.913Z,21.00
2024-03-08T00:50:26.003Z,27.50
2024-03-08T00:51:25.832Z,25.30
2024-03-08T00:52:25.871Z,30.50
2024-03-08T00:53:25.911Z,28.00
2024-03-08T00:54:25.985Z,23.90
2024-03-08T00:55:25.821Z,26.80
2024-03-08T00:56:46.924Z,28.90
2024-03-08T00:57:25.725Z,24.20
2024-03-08T00:58:25.902Z,24.60
2024-03-08T00:59:25.763Z,27.70
2024-03-08T01:00:25.877Z,26.60
2024-03-08T01:01:25.695Z,23.90
2024-03-08T01:02:25.875Z,22.80
2024-03-08T01:03:25.670Z,25.00
2024-03-08T01:04:25.750Z,27.50
2024-03-08T01:05:25.787Z,24.90
2024-03-08T01:06:25.739Z,29.70
2024-03-08T01:07:25.607Z,24.20
2024-03-08T01:08:25.737Z,21.50
2024-03-08T01:09:25.584Z,25.20
2024-03-08T01:10:25.629Z,27.10
2024-03-08T01:11:25.669Z,26.40
2024-03-08T01:12:25.591Z,23.20
2024-03-08T01:13:25.529Z,28.00
2024-03-08T01:14:25.746Z,33.30
2024-03-08T01:15:25.499Z,32.60
2024-03-08T01:16:26.536Z,27.40
2024-03-08T01:17:25.566Z,25.10
2024-03-08T01:18:25.818Z,22.90
2024-03-08T01:19:25.817Z,24.10
2024-03-08T01:20:25.534Z,23.50
2024-03-08T01:21:25.429Z,23.60
2024-03-08T01:22:25.641Z,23.00
2024-03-08T01:23:25.423Z,33.40
2024-03-08T01:24:25.559Z,29.80
2024-03-08T01:25:25.387Z,31.20
2024-03-08T01:26:25.377Z,25.40
2024-03-08T01:27:25.335Z,23.40
2024-03-08T01:28:25.452Z,30.80
2024-03-08T01:29:25.322Z,28.20
2024-03-08T01:30:25.489Z,23.80
2024-03-08T01:31:25.289Z,23.00
2024-03-08T01:32:25.337Z,23.40
2024-03-08T01:33:25.757Z,28.30
2024-03-08T01:34:26.434Z,23.90
2024-03-08T01:35:25.238Z,27.20
2024-03-08T01:36:25.343Z,26.40
2024-03-08T01:37:25.317Z,24.80
2024-03-08T01:38:26.057Z,25.30
2024-03-08T01:39:25.247Z,23.70
2024-03-08T01:40:25.400Z,31.80
2024-03-08T01:41:25.252Z,25.50
2024-03-08T01:42:25.316Z,20.30
2024-03-08T01:43:25.214Z,22.90
2024-03-08T01:44:25.295Z,19.80
2024-03-08T01:45:25.216Z,23.40
2024-03-08T01:46:25.338Z,29.50
2024-03-08T01:47:25.420Z,24.20
2024-03-08T01:48:25.622Z,26.70
2024-03-08T01:49:25.100Z,23.70
2024-03-08T01:50:25.302Z,26.50
2024-03-08T01:51:25.261Z,24.70
2024-03-08T01:52:25.249Z,24.60
2024-03-08T01:53:25.066Z,21.90
2024-03-08T01:54:24.989Z,27.10
2024-03-08T01:55:25.256Z,30.80
2024-03-08T01:56:24.999Z,30.30
2024-03-08T01:57:25.170Z,26.30
2024-03-08T01:58:24.965Z,20.40
2024-03-08T01:59:25.000Z,22.20
2024-03-08T02:00:24.972Z,27.50
2024-03-08T02:01:25.366Z,23.60
2024-03-08T02:02:24.930Z,23.50
2024-03-08T02:03:25.078Z,21.20
2024-03-08T02:04:24.877Z,26.00
2024-03-08T02:06:23.773Z,20.10
2024-03-08T02:07:24.577Z,22.80
2024-03-08T02:08:24.499Z,22.50
2024-03-08T02:09:24.597Z,27.80
2024-03-08T02:10:24.471Z,25.40
2024-03-08T02:11:24.692Z,27.80
2024-03-08T02:12:24.532Z,23.40
2024-03-08T02:13:24.477Z,25.50
2024-03-08T02:14:24.490Z,25.90
2024-03-08T02:15:24.479Z,23.80
2024-03-08T02:16:24.415Z,27.60
2024-03-08T02:17:24.564Z,21.50
2024-03-08T02:18:24.678Z,20.50
2024-03-08T02:19:24.398Z,26.20
2024-03-08T02:20:24.390Z,22.60
2024-03-08T02:21:24.525Z,22.70
2024-03-08T02:22:25.019Z,25.00
2024-03-08T02:23:24.444Z,22.00
2024-03-08T02:24:24.314Z,28.80
2024-03-08T02:25:24.377Z,23.90
2024-03-08T02:26:24.299Z,25.00
2024-03-08T02:27:24.441Z,23.90
2024-03-08T02:28:24.244Z,25.60
2024-03-08T02:29:24.386Z,22.20
2024-03-08T02:30:24.248Z,20.90
2024-03-08T02:31:24.414Z,23.50
2024-03-08T02:32:24.195Z,20.30
2024-03-08T02:33:24.503Z,23.70
2024-03-08T02:34:24.185Z,24.30
2024-03-08T02:35:24.319Z,22.90
2024-03-08T02:36:24.239Z,22.10
2024-03-08T02:37:24.399Z,21.80
2024-03-08T02:38:24.109Z,23.20
2024-03-08T02:39:24.495Z,29.50
2024-03-08T02:40:24.071Z,30.00
2024-03-08T02:41:26.039Z,25.20
2024-03-08T02:42:24.076Z,18.70
2024-03-08T02:43:24.498Z,22.90
2024-03-08T02:44:24.023Z,23.60
2024-03-08T02:45:24.248Z,24.20
2024-03-08T02:46:23.999Z,24.70
2024-03-08T02:47:27.028Z,23.20
2024-03-08T02:48:24.431Z,25.30
2024-03-08T02:49:24.224Z,27.10
2024-03-08T02:50:23.945Z,25.60
2024-03-08T02:51:50.058Z,24.40
2024-03-08T02:52:23.952Z,27.30
2024-03-08T02:53:24.114Z,24.00
2024-03-08T02:54:23.929Z,24.20
2024-03-08T02:55:23.989Z,28.70
2024-03-08T02:56:23.910Z,26.20
2024-03-08T02:57:24.120Z,25.60
2024-03-08T02:58:23.986Z,24.50
2024-03-08T02:59:23.952Z,25.60
2024-03-08T03:00:23.847Z,29.30
2024-03-08T03:01:24.116Z,22.70
2024-03-08T03:02:23.817Z,22.40
2024-03-08T03:03:23.952Z,25.00
2024-03-08T03:04:23.865Z,21.20
2024-03-08T03:05:23.997Z,27.00
2024-03-08T03:06:24.050Z,25.20
2024-03-08T03:07:23.739Z,29.90
2024-03-08T03:08:24.003Z,25.70
2024-03-08T03:09:23.729Z,23.30
2024-03-08T03:10:23.854Z,23.30
2024-03-08T03:11:23.995Z,22.70
2024-03-08T03:12:23.719Z,22.00
2024-03-08T03:13:23.917Z,22.40
2024-03-08T03:14:23.979Z,23.20
2024-03-08T03:15:27.206Z,22.80
2024-03-08T03:16:23.660Z,23.40
2024-03-08T03:17:23.773Z,24.00
2024-03-08T03:18:23.661Z,29.40
2024-03-08T03:19:23.783Z,26.60
2024-03-08T03:20:23.631Z,24.70
2024-03-08T03:21:24.885Z,26.10
2024-03-08T03:22:23.576Z,24.20
2024-03-08T03:23:25.351Z,22.90
2024-03-08T03:24:23.566Z,23.50
2024-03-08T03:25:23.751Z,24.90
2024-03-08T03:26:23.552Z,27.50
2024-03-08T03:27:23.610Z,23.70
2024-03-08T03:28:23.543Z,22.40
2024-03-08T03:29:23.729Z,20.00
2024-03-08T03:30:23.539Z,22.00
2024-03-08T03:31:23.673Z,29.80
2024-03-08T03:32:23.479Z,24.90
2024-03-08T03:33:23.849Z,26.80
2024-03-08T03:34:23.465Z,25.60
2024-03-08T03:35:25.732Z,22.30
2024-03-08T03:36:23.476Z,21.40
2024-03-08T03:37:23.571Z,21.60
2024-03-08T03:38:23.424Z,25.20
2024-03-08T03:39:23.534Z,24.60
2024-03-08T03:40:23.367Z,25.50
2024-03-08T03:41:23.731Z,26.80
2024-03-08T03:42:23.324Z,25.10
2024-03-08T03:43:23.539Z,26.30
2024-03-08T03:44:23.285Z,24.10
2024-03-08T03:45:23.549Z,25.40
2024-03-08T03:46:23.304Z,28.90
2024-03-08T03:47:23.441Z,23.90
2024-03-08T03:48:23.320Z,23.80
2024-03-08T03:49:23.930Z,24.70
2024-03-08T03:50:23.229Z,22.10
2024-03-08T03:51:23.474Z,23.30
2024-03-08T03:52:23.213Z,23.60
2024-03-08T03:53:23.389Z,26.20
2024-03-08T03:54:23.237Z,27.80
2024-03-08T03:55:23.284Z,26.00
2024-03-08T03:56:23.154Z,29.60
2024-03-08T03:57:23.300Z,24.50
2024-03-08T03:58:23.169Z,25.50
2024-03-08T03:59:23.371Z,30.10
2024-03-08T04:00:23.137Z,25.70
2024-03-08T04:01:23.357Z,23.20
2024-03-08T04:02:23.099Z,24.20
2024-03-08T04:03:23.240Z,26.90
2024-03-08T04:04:23.072Z,26.00
2024-03-08T04:05:23.370Z,21.20
2024-03-08T04:06:23.130Z,23.00
2024-03-08T04:07:23.266Z,23.70
2024-03-08T04:08:23.014Z,23.40
2024-03-08T04:09:23.083Z,23.60
2024-03-08T04:10:23.118Z,23.70
2024-03-08T04:11:23.206Z,27.50
2024-03-08T04:12:23.010Z,25.70
2024-03-08T04:13:24.159Z,26.00
2024-03-08T04:14:22.944Z,23.60
2024-03-08T04:15:23.043Z,21.50
2024-03-08T04:16:22.921Z,21.50
2024-03-08T04:17:23.151Z,21.50
2024-03-08T04:18:22.992Z,23.40
2024-03-08T04:19:23.178Z,28.70
2024-03-08T04:20:23.188Z,22.20
2024-03-08T04:21:22.984Z,20.50
2024-03-08T04:22:22.846Z,21.10
2024-03-08T04:23:23.017Z,26.60
2024-03-08T04:24:22.950Z,28.80
2024-03-08T04:25:23.006Z,28.60
2024-03-08T04:26:22.924Z,25.20
2024-03-08T04:27:22.764Z,23.90
2024-03-08T04:28:22.931Z,30.10
2024-03-08T04:29:22.769Z,25.20
2024-03-08T04:30:23.143Z,26.80
2024-03-08T04:31:22.876Z,25.50
2024-03-08T04:32:22.735Z,28.30
2024-03-08T04:33:23.022Z,27.70
2024-03-08T04:34:22.720Z,29.20
2024-03-08T04:35:22.875Z,29.30
2024-03-08T04:36:22.666Z,23.60
2024-03-08T04:37:22.897Z,29.40
2024-03-08T04:38:22.632Z,26.60
2024-03-08T04:39:22.829Z,22.40
2024-03-08T04:40:22.634Z,27.00
2024-03-08T04:41:22.816Z,27.30
2024-03-08T04:42:22.662Z,27.10
2024-03-08T04:43:22.709Z,27.00
2024-03-08T04:44:22.614Z,29.20
2024-03-08T04:45:22.942Z,26.40
2024-03-08T04:46:22.595Z,31.90
2024-03-08T04:47:22.903Z,33.10
2024-03-08T04:48:22.623Z,29.20
2024-03-08T04:49:22.667Z,26.40
2024-03-08T04:50:22.514Z,28.90
2024-03-08T04:51:22.779Z,27.10
2024-03-08T04:52:22.448Z,29.70
2024-03-08T04:53:22.619Z,27.50
2024-03-08T04:54:22.452Z,24.40
2024-03-08T04:55:22.770Z,27.00
2024-03-08T04:56:22.414Z,29.40
2024-03-08T04:57:22.735Z,33.00
2024-03-08T04:58:22.394Z,32.70
2024-03-08T04:59:22.541Z,26.80
2024-03-08T05:00:22.432Z,36.20
2024-03-08T05:01:22.757Z,29.90
2024-03-08T05:02:22.346Z,30.70
2024-03-08T05:03:44.567Z,28.70
2024-03-08T05:04:22.339Z,28.10
2024-03-08T05:05:22.574Z,26.70
2024-03-08T05:06:22.268Z,28.10
2024-03-08T05:07:23.472Z,29.90
2024-03-08T05:08:22.289Z,27.10
2024-03-08T05:09:23.418Z,26.40
2024-03-08T05:10:22.230Z,27.10
2024-03-08T05:11:22.621Z,31.90
2024-03-08T05:12:22.262Z,23.50
2024-03-08T05:13:22.321Z,25.90
2024-03-08T05:14:22.188Z,27.30
2024-03-08T05:15:22.293Z,29.70
2024-03-08T05:16:22.138Z,30.50
2024-03-08T05:17:23.314Z,29.10
2024-03-08T05:18:22.307Z,28.90
2024-03-08T05:19:25.157Z,26.50
2024-03-08T05:20:22.124Z,26.10
2024-03-08T05:21:22.174Z,33.40
2024-03-08T05:22:22.061Z,27.70
2024-03-08T05:23:23.238Z,26.90
2024-03-08T05:24:22.127Z,27.20
2024-03-08T05:25:22.449Z,27.90
2024-03-08T05:26:43.267Z,26.70
2024-03-08T05:27:24.053Z,24.90
2024-03-08T05:28:24.089Z,25.70
2024-03-08T05:29:22.004Z,28.00
2024-03-08T05:30:23.311Z,28.60
2024-03-08T05:31:22.039Z,26.10
2024-03-08T05:32:23.179Z,27.20
2024-03-08T05:33:23.071Z,27.40
2024-03-08T05:34:22.176Z,28.40
2024-03-08T05:35:22.156Z,27.10
2024-03-08T05:36:21.937Z,33.90
2024-03-08T05:37:23.114Z,26.70
2024-03-08T05:38:21.907Z,24.40
2024-03-08T05:39:22.358Z,30.90
2024-03-08T05:40:23.531Z,29.00
2024-03-08T05:41:21.892Z,31.70
2024-03-08T05:42:22.056Z,30.30
2024-03-08T05:43:21.878Z,23.80
2024-03-08T05:44:22.126Z,31.50
2024-03-08T05:45:21.852Z,30.90
2024-03-08T05:46:21.945Z,27.60
2024-03-08T05:47:24.428Z,26.70
2024-03-08T05:48:23.181Z,29.40
2024-03-08T05:49:21.710Z,27.10
2024-03-08T05:50:21.776Z,26.40
2024-03-08T05:51:21.969Z,26.20
2024-03-08T05:52:21.737Z,26.90
2024-03-08T05:53:21.882Z,25.20
2024-03-08T05:54:23.919Z,28.20
2024-03-08T05:55:22.272Z,27.30
2024-03-08T05:56:21.697Z,33.70
2024-03-08T05:57:21.746Z,29.90
2024-03-08T05:58:21.700Z,30.00
2024-03-08T05:59:21.581Z,29.10
2024-03-08T06:00:21.756Z,30.10
2024-03-08T06:01:21.621Z,26.20
2024-03-08T06:02:22.824Z,29.70
2024-03-08T06:03:21.632Z,26.30
2024-03-08T06:04:21.739Z,24.80
2024-03-08T06:05:21.540Z,23.00
2024-03-08T06:06:21.678Z,26.40
2024-03-08T06:07:21.507Z,28.90
2024-03-08T06:08:21.892Z,26.20
2024-03-08T06:09:21.504Z,30.70
2024-03-08T06:10:21.595Z,30.20
2024-03-08T06:11:21.655Z,41.10
2024-03-08T06:12:21.788Z,35.70
2024-03-08T06:13:21.416Z,31.40
2024-03-08T06:14:21.633Z,29.60
2024-03-08T06:15:21.404Z,30.70
2024-03-08T06:16:21.432Z,24.90
2024-03-08T06:17:21.371Z,29.20
2024-03-08T06:18:21.562Z,31.90
2024-03-08T06:19:21.346Z,27.20
2024-03-08T06:20:21.481Z,27.70
2024-03-08T06:21:21.517Z,22.50
2024-03-08T06:22:21.492Z,31.50
2024-03-08T06:23:21.310Z,30.90
2024-03-08T06:24:21.568Z,34.30
2024-03-08T06:25:21.308Z,27.10
2024-03-08T06:26:21.514Z,29.00
2024-03-08T06:27:21.312Z,24.70
2024-03-08T06:28:21.377Z,27.90
2024-03-08T06:29:21.212Z,25.10
2024-03-08T06:30:21.385Z,28.00
2024-03-08T06:31:21.206Z,26.50
2024-03-08T06:32:21.357Z,22.70
2024-03-08T06:33:21.280Z,27.80
2024-03-08T06:34:21.309Z,28.80
2024-03-08T06:35:21.162Z,25.80
2024-03-08T06:36:21.300Z,30.70
2024-03-08T06:37:21.124Z,26.10
2024-03-08T06:38:21.270Z,39.90
2024-03-08T06:39:21.142Z,38.90
2024-03-08T06:40:21.187Z,30.70
2024-03-08T06:41:21.125Z,38.40
2024-03-08T06:42:21.297Z,24.80
2024-03-08T06:43:21.147Z,23.20
2024-03-08T06:44:21.214Z,34.00
2024-03-08T06:45:21.126Z,24.00
2024-03-08T06:46:21.209Z,26.70
2024-03-08T06:47:21.028Z,27.60
2024-03-08T06:48:21.170Z,25.70
2024-03-08T06:49:20.986Z,24.70
2024-03-08T06:50:21.119Z,26.60
2024-03-08T06:51:20.995Z,33.40
2024-03-08T06:52:21.086Z,23.80
2024-03-08T06:53:23.930Z,26.70
2024-03-08T06:54:20.940Z,26.70
2024-03-08T06:55:21.120Z,30.20
2024-03-08T06:56:20.924Z,24.90
2024-03-08T06:57:20.991Z,23.70
2024-03-08T06:58:20.838Z,25.50
2024-03-08T06:59:21.922Z,25.30
2024-03-08T07:00:27.466Z,23.30
2024-03-08T07:01:21.734Z,24.40
2024-03-08T07:02:20.806Z,22.50
2024-03-08T07:03:20.880Z,22.40
2024-03-08T07:04:20.773Z,21.40
2024-03-08T07:05:20.799Z,24.00
2024-03-08T07:06:20.810Z,20.40
2024-03-08T07:07:20.757Z,21.00
2024-03-08T07:08:20.739Z,21.70
2024-03-08T07:09:20.857Z,23.20
2024-03-08T07:10:20.718Z,18.40
2024-03-08T07:11:20.720Z,21.70
2024-03-08T07:12:20.693Z,21.60
2024-03-08T07:13:20.715Z,23.70
2024-03-08T07:14:20.763Z,19.90
2024-03-08T07:15:20.907Z,20.20
2024-03-08T07:16:20.632Z,24.40
2024-03-08T07:17:20.640Z,18.70
2024-03-08T07:18:20.830Z,19.90
2024-03-08T07:19:20.654Z,18.10
2024-03-08T07:20:20.597Z,18.40
2024-03-08T07:21:20.717Z,20.70
2024-03-08T07:22:20.524Z,19.40
2024-03-08T07:23:20.670Z,19.70
2024-03-08T07:24:20.630Z,18.30
2024-03-08T07:25:20.559Z,19.70
2024-03-08T07:26:20.568Z,19.50
2024-03-08T07:27:20.544Z,22.20
2024-03-08T07:28:20.463Z,17.60
2024-03-08T07:29:20.468Z,22.40
2024-03-08T07:30:20.637Z,23.50
2024-03-08T07:31:20.468Z,17.80
2024-03-08T07:32:20.425Z,26.50
2024-03-08T07:33:20.513Z,20.40
2024-03-08T07:34:20.409Z,19.40
2024-03-08T07:35:20.412Z,18.90
2024-03-08T07:36:20.425Z,22.00
2024-03-08T07:37:20.438Z,21.20
2024-03-08T07:38:20.328Z,18.00
2024-03-08T07:39:20.413Z,19.70
2024-03-08T07:40:21.929Z,19.60
2024-03-08T07:41:20.312Z,16.60
2024-03-08T07:42:20.277Z,22.90
2024-03-08T07:43:20.324Z,20.40
2024-03-08T07:44:20.298Z,18.40
2024-03-08T07:45:20.304Z,24.30
2024-03-08T07:46:20.258Z,18.20
2024-03-08T07:47:21.770Z,21.50
2024-03-08T07:48:20.266Z,19.90
2024-03-08T07:49:20.217Z,20.00
2024-03-08T07:50:20.227Z,17.90
2024-03-08T07:51:20.293Z,19.10
2024-03-08T07:52:20.164Z,21.80
2024-03-08T07:53:20.182Z,21.30
2024-03-08T07:54:20.215Z,19.70
2024-03-08T07:55:20.142Z,21.90
2024-03-08T07:56:20.109Z,20.00
2024-03-08T07:57:20.113Z,18.90
2024-03-08T07:58:20.164Z,17.90
2024-03-08T07:59:20.109Z,16.80
2024-03-08T08:00:20.081Z,19.60
2024-03-08T08:01:20.156Z,23.10
2024-03-08T08:02:20.121Z,20.50
2024-03-08T08:03:20.050Z,20.60
2024-03-08T08:04:20.098Z,18.40
2024-03-08T08:05:20.010Z,20.80
2024-03-08T08:06:20.021Z,19.30
2024-03-08T08:07:20.011Z,18.80
2024-03-08T08:08:19.969Z,24.20
2024-03-08T08:09:19.953Z,17.60
2024-03-08T08:10:19.994Z,20.40
2024-03-08T08:11:20.010Z,19.70
2024-03-08T08:12:19.977Z,21.20
2024-03-08T08:13:19.951Z,18.60
2024-03-08T08:14:19.979Z,22.70
2024-03-08T08:15:19.936Z,20.80
2024-03-08T08:16:20.009Z,21.90
2024-03-08T08:17:19.921Z,18.70
2024-03-08T08:18:19.862Z,22.80
2024-03-08T08:19:19.929Z,21.40
2024-03-08T08:20:19.891Z,18.40
2024-03-08T08:21:20.023Z,23.80
2024-03-08T08:22:19.841Z,21.60
2024-03-08T08:23:19.847Z,24.20
2024-03-08T08:24:19.835Z,24.80
2024-03-08T08:25:19.800Z,20.70
2024-03-08T08:26:19.743Z,21.00
2024-03-08T08:27:19.833Z,20.60
2024-03-08T08:28:19.890Z,20.80
2024-03-08T08:29:19.794Z,18.20
2024-03-08T08:30:19.746Z,18.10
2024-03-08T08:31:19.746Z,22.00
2024-03-08T08:32:19.662Z,17.10
2024-03-08T08:33:19.798Z,18.30
2024-03-08T08:34:19.696Z,19.90
2024-03-08T08:35:20.014Z,20.20
2024-03-08T08:36:19.668Z,17.20
2024-03-08T08:37:21.098Z,17.60
2024-03-08T08:38:19.631Z,17.20
2024-03-08T08:39:19.669Z,19.20
2024-03-08T08:40:19.722Z,18.30
2024-03-08T08:41:19.638Z,21.00
2024-03-08T08:42:19.601Z,20.80
2024-03-08T08:43:19.643Z,18.00
2024-03-08T08:44:19.705Z,16.00
2024-03-08T08:45:23.436Z,15.60
2024-03-08T08:46:21.161Z,17.80
2024-03-08T08:47:19.580Z,14.00
2024-03-08T08:48:19.491Z,16.80
2024-03-08T08:49:19.480Z,16.20
2024-03-08T08:50:19.451Z,17.00
2024-03-08T08:51:19.476Z,16.60
2024-03-08T08:52:19.482Z,20.60
2024-03-08T08:53:19.449Z,17.80
2024-03-08T08:54:19.393Z,15.00
2024-03-08T08:55:19.434Z,16.60
2024-03-08T08:56:19.348Z,14.50
2024-03-08T08:57:19.432Z,21.00
2024-03-08T08:58:19.428Z,16.80
2024-03-08T08:59:23.174Z,18.80
2024-03-08T09:00:19.300Z,19.50
2024-03-08T09:01:19.405Z,22.70
2024-03-08T09:02:19.498Z,16.80
2024-03-08T09:03:19.281Z,24.80
2024-03-08T09:04:19.292Z,20.00
2024-03-08T09:05:19.289Z,19.80
2024-03-08T09:06:19.259Z,21.50
2024-03-08T09:07:19.319Z,20.00
2024-03-08T09:08:19.235Z,17.60
2024-03-08T09:09:19.197Z,17.80
2024-03-08T09:10:19.257Z,17.70
2024-03-08T09:11:19.216Z,19.00
2024-03-08T09:12:19.244Z,17.90
2024-03-08T09:13:28.443Z,16.00
2024-03-08T09:14:19.155Z,20.80
2024-03-08T09:15:19.228Z,21.90
2024-03-08T09:16:19.237Z,18.50
2024-03-08T09:17:19.110Z,19.80
2024-03-08T09:18:19.132Z,18.30
2024-03-08T09:19:19.182Z,18.90
2024-03-08T09:20:19.104Z,14.20
2024-03-08T09:21:20.250Z,18.50
2024-03-08T09:22:19.053Z,17.90
2024-03-08T09:23:19.033Z,16.80
2024-03-08T09:24:19.016Z,19.20
2024-03-08T09:25:19.096Z,16.50
2024-03-08T09:26:25.879Z,19.20
2024-03-08T09:27:19.061Z,17.50
2024-03-08T09:28:19.051Z,14.80
2024-03-08T09:29:18.993Z,18.90
2024-03-08T09:30:19.083Z,15.30
2024-03-08T09:31:18.963Z,17.60
2024-03-08T09:32:18.967Z,18.90
2024-03-08T09:33:18.951Z,17.30
2024-03-08T09:34:22.840Z,19.70
2024-03-08T09:35:18.939Z,17.20
2024-03-08T09:36:18.955Z,16.50
2024-03-08T09:37:18.944Z,17.60
2024-03-08T09:38:18.899Z,17.60
2024-03-08T09:39:18.849Z,15.10
2024-03-08T09:40:18.865Z,16.30
2024-03-08T09:41:18.903Z,16.90
2024-03-08T09:42:18.815Z,16.80
2024-03-08T09:43:20.381Z,17.70
2024-03-08T09:44:18.738Z,15.90
2024-03-08T09:45:18.789Z,16.60
2024-03-08T09:46:18.736Z,12.30
2024-03-08T09:47:18.730Z,16.30
2024-03-08T09:48:18.706Z,16.10
2024-03-08T09:49:18.752Z,17.50
2024-03-08T09:50:19.523Z,15.30
2024-03-08T09:51:18.677Z,14.90
2024-03-08T09:52:18.660Z,17.70
2024-03-08T09:53:18.850Z,16.70
2024-03-08T09:54:23.280Z,13.90
2024-03-08T09:55:18.648Z,16.40
2024-03-08T09:56:18.624Z,16.20
2024-03-08T09:57:20.970Z,16.60
2024-03-08T09:58:18.815Z,17.70
2024-03-08T09:59:18.614Z,19.70
2024-03-08T10:00:18.649Z,17.80
2024-03-08T10:01:18.641Z,18.40
2024-03-08T10:02:18.640Z,17.00
2024-03-08T10:03:18.570Z,15.50
2024-03-08T10:04:18.637Z,14.60
2024-03-08T10:05:18.544Z,19.10
2024-03-08T10:06:18.578Z,15.70
2024-03-08T10:07:18.609Z,12.60
2024-03-08T10:08:18.516Z,18.20
2024-03-08T10:09:18.445Z,17.70
2024-03-08T10:10:18.500Z,17.40
2024-03-08T10:11:18.634Z,19.70
2024-03-08T10:12:18.385Z,14.40
2024-03-08T10:13:18.551Z,14.20
2024-03-08T10:14:19.577Z,19.50
2024-03-08T10:15:18.494Z,15.60
2024-03-08T10:16:18.432Z,14.30
2024-03-08T10:17:18.410Z,13.90
2024-03-08T10:18:18.363Z,17.30
2024-03-08T10:19:18.436Z,15.80
2024-03-08T10:20:18.476Z,13.40
2024-03-08T10:21:19.189Z,16.40
2024-03-08T10:22:18.300Z,14.90
2024-03-08T10:23:18.307Z,17.70
2024-03-08T10:24:18.249Z,13.80
2024-03-08T10:25:18.248Z,18.30
2024-03-08T10:26:18.196Z,16.70
2024-03-08T10:27:18.241Z,12.40
2024-03-08T10:28:18.195Z,14.40
2024-03-08T10:29:18.193Z,14.20
2024-03-08T10:30:18.209Z,15.00
2024-03-08T10:31:19.481Z,15.40
2024-03-08T10:32:18.182Z,13.00
2024-03-08T10:33:18.209Z,19.10
2024-03-08T10:34:18.146Z,14.10
2024-03-08T10:35:18.236Z,15.70
2024-03-08T10:36:18.157Z,17.70
2024-03-08T10:37:18.160Z,13.00
2024-03-08T10:38:18.108Z,14.50
2024-03-08T10:39:18.100Z,13.10
2024-03-08T10:40:18.193Z,14.10
2024-03-08T10:41:18.609Z,15.30
2024-03-08T10:42:19.248Z,13.40
2024-03-08T10:43:18.451Z,14.20
2024-03-08T10:44:18.159Z,14.50
2024-03-08T10:45:18.031Z,15.00
2024-03-08T10:46:24.371Z,13.20
2024-03-08T10:47:17.964Z,13.10
2024-03-08T10:48:18.041Z,15.70
2024-03-08T10:49:17.988Z,17.30
2024-03-08T10:50:18.026Z,14.20
2024-03-08T10:51:17.915Z,14.10
2024-03-08T10:52:18.046Z,13.10
2024-03-08T10:53:18.006Z,14.00
2024-03-08T10:54:17.855Z,14.40
2024-03-08T10:55:17.893Z,16.00
2024-03-08T10:56:17.857Z,19.20
2024-03-08T10:57:17.889Z,14.30
2024-03-08T10:58:17.952Z,17.50
2024-03-08T10:59:17.871Z,13.00
2024-03-08T11:00:17.856Z,14.80
2024-03-08T11:01:17.871Z,13.50
2024-03-08T11:02:17.934Z,10.90
2024-03-08T11:03:17.757Z,13.90
2024-03-08T11:04:17.808Z,13.70
2024-03-08T11:05:17.709Z,15.50
2024-03-08T11:06:17.853Z,12.50
2024-03-08T11:07:17.856Z,12.20
2024-03-08T11:08:17.692Z,13.00
2024-03-08T11:09:17.630Z,13.20
2024-03-08T11:10:17.685Z,11.40
2024-03-08T11:11:17.703Z,11.90
2024-03-08T11:12:17.653Z,12.40
2024-03-08T11:13:17.621Z,12.70
2024-03-08T11:14:17.885Z,11.50
2024-03-08T11:15:17.561Z,15.70
2024-03-08T11:16:17.652Z,15.00
2024-03-08T11:17:19.242Z,15.30
2024-03-08T11:18:17.559Z,12.70
2024-03-08T11:19:17.566Z,14.00
2024-03-08T11:20:17.610Z,12.00
2024-03-08T11:21:17.489Z,15.10
2024-03-08T11:22:17.546Z,14.00
2024-03-08T11:23:17.467Z,11.80
2024-03-08T11:24:17.518Z,15.40
2024-03-08T11:25:17.553Z,12.20
2024-03-08T11:26:17.454Z,18.00
2024-03-08T11:27:17.409Z,14.20
2024-03-08T11:28:17.593Z,12.60
2024-03-08T11:29:17.414Z,13.60
2024-03-08T11:30:19.010Z,15.70
2024-03-08T11:31:17.355Z,13.80
2024-03-08T11:32:17.364Z,18.10
2024-03-08T11:33:17.397Z,15.00
2024-03-08T11:34:17.461Z,13.70
2024-03-08T11:35:17.297Z,14.20
2024-03-08T11:36:17.304Z,12.20
2024-03-08T11:37:17.325Z,13.70
2024-03-08T11:38:17.285Z,16.50
2024-03-08T11:39:17.274Z,14.50
2024-03-08T11:40:17.415Z,15.20
2024-03-08T11:41:19.201Z,17.40
2024-03-08T11:42:17.227Z,14.10
2024-03-08T11:43:17.196Z,13.00
2024-03-08T11:44:17.337Z,13.80
2024-03-08T11:45:17.202Z,12.70
2024-03-08T11:46:30.125Z,13.10
2024-03-08T11:47:17.211Z,14.90
2024-03-08T11:48:17.381Z,10.80
2024-03-08T11:49:17.131Z,11.70
2024-03-08T11:50:17.236Z,11.90
2024-03-08T11:51:17.091Z,13.60
2024-03-08T11:52:17.303Z,10.30
2024-03-08T11:53:17.078Z,12.60
2024-03-08T11:54:17.122Z,11.80
2024-03-08T11:55:17.076Z,13.00
2024-03-08T11:56:17.259Z,11.40
2024-03-08T11:57:17.068Z,11.00
2024-03-08T11:58:17.123Z,13.40
2024-03-08T11:59:17.023Z,10.20
2024-03-08T12:00:17.173Z,10.70
2024-03-08T12:01:17.078Z,10.70
2024-03-08T12:02:17.118Z,11.90
2024-03-08T12:03:16.949Z,12.50
2024-03-08T12:04:17.034Z,11.50
2024-03-08T12:05:16.936Z,12.00
2024-03-08T12:06:17.033Z,14.20
2024-03-08T12:07:16.956Z,9.50
2024-03-08T12:08:17.088Z,12.30
2024-03-08T12:09:16.858Z,12.10
2024-03-08T12:10:16.982Z,11.80
2024-03-08T12:11:16.923Z,11.80
2024-03-08T12:12:17.932Z,11.50
2024-03-08T12:13:16.954Z,10.50
2024-03-08T12:14:16.917Z,11.70
2024-03-08T12:15:16.775Z,11.50
2024-03-08T12:16:17.005Z,13.70
2024-03-08T12:17:16.760Z,11.90
2024-03-08T12:18:16.886Z,10.50
2024-03-08T12:19:16.842Z,21.10
2024-03-08T12:20:16.794Z,11.60
2024-03-08T12:21:16.734Z,11.30
2024-03-08T12:22:16.984Z,11.10
2024-03-08T12:23:16.709Z,15.40
2024-03-08T12:24:16.823Z,11.00
2024-03-08T12:25:16.695Z,11.30
2024-03-08T12:26:16.851Z,13.20
2024-03-08T12:27:16.660Z,15.80
2024-03-08T12:28:17.006Z,15.80
2024-03-08T12:29:16.666Z,13.20
2024-03-08T12:30:16.650Z,10.60
2024-03-08T12:31:16.634Z,12.10
2024-03-08T12:32:16.679Z,10.80
2024-03-08T12:33:16.729Z,10.40
2024-03-08T12:34:16.718Z,10.40
2024-03-08T12:35:16.560Z,10.60
2024-03-08T12:36:16.646Z,9.90
2024-03-08T12:37:16.563Z,12.70
2024-03-08T12:38:16.767Z,10.70
2024-03-08T12:39:16.473Z,10.90
2024-03-08T12:40:17.831Z,12.80
2024-03-08T12:41:17.511Z,11.50
2024-03-08T12:42:16.523Z,14.00
2024-03-08T12:43:17.240Z,14.40
2024-03-08T12:44:16.477Z,10.40
2024-03-08T12:45:16.432Z,10.40
2024-03-08T12:46:16.469Z,11.40
2024-03-08T12:47:16.492Z,11.70
2024-03-08T12:48:16.406Z,11.80
2024-03-08T12:49:16.589Z,13.80
2024-03-08T12:50:16.371Z,12.90
2024-03-08T12:51:16.547Z,11.70
2024-03-08T12:52:17.576Z,9.50
2024-03-08T12:53:16.556Z,11.60